createdAt,value
2023-03-10T00:00:28.958Z,2.54
2023-03-10T00:02:58.556Z,2.48
2023-03-10T00:05:28.222Z,2.44
2023-03-10T00:07:57.867Z,2.46
2023-03-10T00:10:27.501Z,2.35
2023-03-10T00:12:59.690Z,2.39
2023-03-10T00:15:29.353Z,2.40
2023-03-10T00:17:58.948Z,2.41
2023-03-10T00:20:28.525Z,2.33
2023-03-10T00:22:58.134Z,2.52
2023-03-10T00:25:27.696Z,2.40
2023-03-10T00:27:59.864Z,2.49
2023-03-10T00:30:31.215Z,2.34
2023-03-10T00:33:03.748Z,2.43
2023-03-10T00:35:33.379Z,2.46
2023-03-10T00:38:03.757Z,2.16
2023-03-10T00:40:33.368Z,2.57
2023-03-10T00:43:05.575Z,2.11
2023-03-10T00:45:38.075Z,2.33
2023-03-10T00:48:08.554Z,2.49
2023-03-10T00:50:38.156Z,2.22
2023-03-10T00:53:07.782Z,2.21
2023-03-10T00:55:37.380Z,2.59
2023-03-10T00:58:09.612Z,2.61
2023-03-10T01:00:39.455Z,2.38
2023-03-10T01:03:09.166Z,2.45
2023-03-10T01:05:38.785Z,2.26
2023-03-10T01:08:08.741Z,2.47
2023-03-10T01:10:38.336Z,2.41
2023-03-10T01:13:10.549Z,2.39
2023-03-10T01:15:40.715Z,2.40
2023-03-10T01:18:10.499Z,2.35
2023-03-10T01:20:41.628Z,2.50
2023-03-10T01:23:15.536Z,2.55
2023-03-10T01:25:45.603Z,2.58
2023-03-10T01:28:18.431Z,2.67
2023-03-10T01:30:48.764Z,2.52
2023-03-10T01:33:19.555Z,2.53
2023-03-10T01:35:49.225Z,2.46
2023-03-10T01:38:20.163Z,2.55
2023-03-10T01:40:52.295Z,2.73
2023-03-10T01:43:36.605Z,2.63
2023-03-10T01:46:41.042Z,2.65
2023-03-10T01:49:28.710Z,2.64
2023-03-10T01:52:03.994Z,2.72
2023-03-10T01:54:40.637Z,2.57
2023-03-10T01:57:11.227Z,2.75
2023-03-10T01:59:45.209Z,2.69
2023-03-10T02:02:15.200Z,2.56
2023-03-10T02:04:48.663Z,2.68
2023-03-10T02:07:27.579Z,2.38
2023-03-10T02:09:58.680Z,2.63
2023-03-10T02:12:28.507Z,2.70
2023-03-10T02:15:00.903Z,2.66
2023-03-10T02:17:31.556Z,2.63
2023-03-10T02:20:23.097Z,2.68
2023-03-10T02:22:53.313Z,2.72
2023-03-10T02:25:33.307Z,2.82
2023-03-10T02:28:07.220Z,2.59
2023-03-10T02:30:40.264Z,2.80
2023-03-10T02:33:14.043Z,2.65
2023-03-10T02:35:43.731Z,2.58
2023-03-10T02:38:17.446Z,2.67
2023-03-10T02:40:49.429Z,2.77
2023-03-10T02:43:28.710Z,2.77
2023-03-10T02:46:07.620Z,2.61
2023-03-10T02:48:41.913Z,2.68
2023-03-10T02:51:21.130Z,2.72
2023-03-10T02:53:50.912Z,2.80
2023-03-10T02:56:21.231Z,2.81
2023-03-10T02:58:54.942Z,2.77
2023-03-10T03:01:26.339Z,2.63
2023-03-10T03:03:57.582Z,2.65
2023-03-10T03:06:29.166Z,2.78
2023-03-10T03:08:59.262Z,2.77
2023-03-10T03:11:30.740Z,2.73
2023-03-10T03:14:03.039Z,2.73
2023-03-10T03:16:33.810Z,2.45
2023-03-10T03:19:07.273Z,2.82
2023-03-10T03:21:37.014Z,2.74
2023-03-10T03:24:07.514Z,2.85
2023-03-10T03:26:37.204Z,2.81
2023-03-10T03:29:17.684Z,2.73
2023-03-10T03:31:47.677Z,2.68
2023-03-10T03:34:23.413Z,2.80
2023-03-10T03:36:56.385Z,2.64
2023-03-10T03:39:31.740Z,2.65
2023-03-10T03:42:04.617Z,2.73
2023-03-10T03:44:44.223Z,2.80
2023-03-10T03:47:14.445Z,2.65
2023-03-10T03:49:44.812Z,2.96
2023-03-10T03:52:15.294Z,2.96
2023-03-10T03:54:44.957Z,3.06
2023-03-10T03:57:14.588Z,3.05
2023-03-10T03:59:46.874Z,2.90
2023-03-10T04:02:16.562Z,3.07
2023-03-10T04:04:46.466Z,2.89
2023-03-10T04:07:18.171Z,3.19
2023-03-10T04:09:49.295Z,3.20
2023-03-10T04:12:19.417Z,3.23
2023-03-10T04:14:52.904Z,3.40
2023-03-10T04:17:23.294Z,3.25
2023-03-10T04:20:06.286Z,3.31
2023-03-10T04:22:38.490Z,3.35
2023-03-10T04:25:10.966Z,3.58
2023-03-10T04:27:40.888Z,3.58
2023-03-10T04:30:16.272Z,3.66
2023-03-10T04:32:49.720Z,3.54
2023-03-10T04:35:21.446Z,3.55
2023-03-10T04:37:51.072Z,3.76
2023-03-10T04:40:21.390Z,3.83
2023-03-10T04:42:51.654Z,3.80
2023-03-10T04:45:24.668Z,3.94
2023-03-10T04:47:56.125Z,3.85
2023-03-10T04:50:25.815Z,3.82
2023-03-10T04:52:56.355Z,3.99
2023-03-10T04:55:29.777Z,4.02
2023-03-10T04:58:00.425Z,4.05
2023-03-10T05:00:32.926Z,4.10
2023-03-10T05:03:03.289Z,4.01
2023-03-10T05:05:32.852Z,4.07
2023-03-10T05:08:02.525Z,4.12
2023-03-10T05:10:33.320Z,4.15
2023-03-10T05:13:03.132Z,4.01
2023-03-10T05:15:36.961Z,4.28
2023-03-10T05:18:06.682Z,4.15
2023-03-10T05:20:36.822Z,4.24
2023-03-10T05:23:06.837Z,4.21
2023-03-10T05:25:36.449Z,4.28
2023-03-10T05:28:06.348Z,4.11
2023-03-10T05:30:38.529Z,4.39
2023-03-10T05:33:08.168Z,4.06
2023-03-10T05:35:39.948Z,4.34
2023-03-10T05:38:09.944Z,4.29
2023-03-10T05:40:39.571Z,4.39
2023-03-10T05:43:09.220Z,4.10
2023-03-10T05:45:41.666Z,4.38
2023-03-10T05:48:11.335Z,4.28
2023-03-10T05:50:40.902Z,4.37
2023-03-10T05:53:11.450Z,4.37
2023-03-10T05:55:41.181Z,4.32
2023-03-10T05:58:10.943Z,4.36
2023-03-10T06:00:43.143Z,4.41
2023-03-10T06:03:12.774Z,4.39
2023-03-10T06:05:42.399Z,4.29
2023-03-10T06:08:11.983Z,4.38
2023-03-10T06:10:41.561Z,4.22
2023-03-10T06:13:11.157Z,4.19
2023-03-10T06:15:43.403Z,4.33
2023-03-10T06:18:12.982Z,4.28
2023-03-10T06:20:42.777Z,4.34
2023-03-10T06:23:12.556Z,4.34
2023-03-10T06:25:42.161Z,4.29
2023-03-10T06:28:12.332Z,4.18
2023-03-10T06:30:44.532Z,4.23
2023-03-10T06:33:14.302Z,4.26
2023-03-10T06:35:43.891Z,4.14
2023-03-10T06:38:14.230Z,4.20
2023-03-10T06:40:43.849Z,4.51
2023-03-10T06:43:13.525Z,4.57
2023-03-10T06:45:48.581Z,4.41
2023-03-10T06:48:18.847Z,4.46
2023-03-10T06:50:52.108Z,4.27
2023-03-10T06:53:23.648Z,4.24
2023-03-10T06:56:01.214Z,4.18
2023-03-10T06:58:32.434Z,4.22
2023-03-10T07:01:04.997Z,4.30
2023-03-10T07:03:34.628Z,4.25
2023-03-10T07:06:05.055Z,3.93
2023-03-10T07:08:34.726Z,4.00
2023-03-10T07:11:04.370Z,3.77
2023-03-10T07:13:33.929Z,4.10
2023-03-10T07:16:06.345Z,4.17
2023-03-10T07:18:36.310Z,4.08
2023-03-10T07:21:09.986Z,4.05
2023-03-10T07:23:39.989Z,4.10
2023-03-10T07:26:10.859Z,4.11
2023-03-10T07:28:41.017Z,4.08
2023-03-10T07:31:14.792Z,4.04
2023-03-10T07:33:44.748Z,3.93
2023-03-10T07:36:17.214Z,3.85
2023-03-10T07:38:46.955Z,3.98
2023-03-10T07:41:19.256Z,3.87
2023-03-10T07:43:49.212Z,4.13
2023-03-10T07:46:21.697Z,4.14
2023-03-10T07:48:52.794Z,4.13
2023-03-10T07:51:22.616Z,4.22
2023-03-10T07:53:52.286Z,4.21
2023-03-10T07:56:22.158Z,4.18
2023-03-10T07:58:51.776Z,3.80
2023-03-10T08:01:24.998Z,4.23
2023-03-10T08:03:57.545Z,4.12
2023-03-10T08:06:30.859Z,4.29
2023-03-10T08:09:00.883Z,4.28
2023-03-10T08:11:30.644Z,4.43
2023-03-10T08:14:00.348Z,4.30
2023-03-10T08:16:32.631Z,4.46
2023-03-10T08:19:02.245Z,4.54
2023-03-10T08:21:31.898Z,4.52
2023-03-10T08:24:01.468Z,4.42
2023-03-10T08:26:31.067Z,4.14
2023-03-10T08:29:00.618Z,4.35
2023-03-10T08:31:32.855Z,4.34
2023-03-10T08:34:02.453Z,4.44
2023-03-10T08:36:33.513Z,4.48
2023-03-10T08:39:05.734Z,4.43
2023-03-10T08:41:37.534Z,4.39
2023-03-10T08:44:08.283Z,4.36
2023-03-10T08:46:40.581Z,4.44
2023-03-10T08:49:10.611Z,4.19
2023-03-10T08:51:40.679Z,4.43
2023-03-10T08:54:10.767Z,4.49
2023-03-10T08:56:40.493Z,4.53
2023-03-10T08:59:10.148Z,4.37
2023-03-10T09:01:42.675Z,4.33
2023-03-10T09:04:13.230Z,4.46
2023-03-10T09:06:43.268Z,4.45
2023-03-10T09:09:13.196Z,4.48
2023-03-10T09:11:43.504Z,4.48
2023-03-10T09:14:17.042Z,4.32
2023-03-10T09:16:49.505Z,4.32
2023-03-10T09:19:21.870Z,4.40
2023-03-10T09:21:51.448Z,4.66
2023-03-10T09:24:21.059Z,4.59
2023-03-10T09:26:50.652Z,4.59
2023-03-10T09:29:23.024Z,4.58
2023-03-10T09:31:59.346Z,4.51
2023-03-10T09:34:30.120Z,4.55
2023-03-10T09:36:59.894Z,4.46
2023-03-10T09:39:29.481Z,4.60
2023-03-10T09:42:36.412Z,4.42
2023-03-10T09:45:25.783Z,4.68
2023-03-10T09:48:13.035Z,4.71
2023-03-10T09:50:46.401Z,4.74
2023-03-10T09:53:32.677Z,4.67
2023-03-10T09:56:03.044Z,4.73
2023-03-10T09:58:36.017Z,4.68
2023-03-10T10:01:08.133Z,4.76
2023-03-10T10:03:52.694Z,4.78
2023-03-10T10:06:28.510Z,4.81
2023-03-10T10:09:05.065Z,4.74
2023-03-10T10:11:36.924Z,4.58
2023-03-10T10:14:28.440Z,4.57
2023-03-10T10:17:07.348Z,4.75
2023-03-10T10:19:41.311Z,4.51
2023-03-10T10:22:18.264Z,4.93
2023-03-10T10:25:07.914Z,4.89
2023-03-10T10:27:38.211Z,4.88
2023-03-10T10:30:37.093Z,4.80
2023-03-10T10:33:08.354Z,4.85
2023-03-10T10:35:43.619Z,4.93
2023-03-10T10:38:26.244Z,4.87
2023-03-10T10:41:05.813Z,4.77
2023-03-10T10:43:43.864Z,4.66
2023-03-10T10:46:15.769Z,4.70
2023-03-10T10:48:46.921Z,4.66
2023-03-10T10:51:28.936Z,4.63
2023-03-10T10:53:59.194Z,4.76
2023-03-10T10:56:30.973Z,4.66
2023-03-10T10:59:07.102Z,4.86
2023-03-10T11:01:52.212Z,4.87
2023-03-10T11:04:22.832Z,4.78
2023-03-10T11:06:55.829Z,4.91
2023-03-10T11:09:26.346Z,4.88
2023-03-10T11:12:05.724Z,5.00
2023-03-10T11:14:57.147Z,4.96
2023-03-10T11:17:32.403Z,4.95
2023-03-10T11:20:16.370Z,5.08
2023-03-10T11:22:52.828Z,5.15
2023-03-10T11:25:29.614Z,5.22
2023-03-10T11:28:12.849Z,5.08
2023-03-10T11:30:49.545Z,5.00
2023-03-10T11:33:26.830Z,4.97
2023-03-10T11:36:01.119Z,5.08
2023-03-10T11:38:42.509Z,5.21
2023-03-10T11:41:17.237Z,5.17
2023-03-10T11:43:55.623Z,5.00
2023-03-10T11:46:30.508Z,5.24
2023-03-10T11:49:08.380Z,5.30
2023-03-10T11:51:42.532Z,5.41
2023-03-10T11:54:18.398Z,5.25
2023-03-10T11:56:48.482Z,5.13
2023-03-10T11:59:21.599Z,5.20
2023-03-10T12:01:55.784Z,5.13
2023-03-10T12:04:30.782Z,4.93
2023-03-10T12:07:07.773Z,5.14
2023-03-10T12:09:46.430Z,5.00
2023-03-10T12:12:19.134Z,5.02
2023-03-10T12:14:49.968Z,5.16
2023-03-10T12:17:20.490Z,5.16
2023-03-10T12:20:25.457Z,5.14
2023-03-10T12:22:56.684Z,5.19
2023-03-10T12:25:52.878Z,5.05
2023-03-10T12:28:28.181Z,5.16
2023-03-10T12:31:00.348Z,5.13
2023-03-10T12:33:47.597Z,5.17
2023-03-10T12:36:27.413Z,5.02
2023-03-10T12:38:59.256Z,5.06
2023-03-10T12:41:50.697Z,5.24
2023-03-10T12:44:46.763Z,5.07
2023-03-10T12:47:33.658Z,5.03
2023-03-10T12:50:09.391Z,5.01
2023-03-10T12:52:49.706Z,5.05
2023-03-10T12:55:22.162Z,5.24
2023-03-10T12:58:00.997Z,5.29
2023-03-10T13:00:38.107Z,5.17
2023-03-10T13:03:19.555Z,5.13
2023-03-10T13:06:06.667Z,5.15
2023-03-10T13:08:47.187Z,5.35
2023-03-10T13:11:27.412Z,5.30
2023-03-10T13:14:02.892Z,5.42
2023-03-10T13:16:33.454Z,5.63
2023-03-10T13:19:03.919Z,5.57
2023-03-10T13:21:35.298Z,5.40
2023-03-10T13:24:21.387Z,5.50
2023-03-10T13:26:50.974Z,5.14
2023-03-10T13:29:23.230Z,5.39
2023-03-10T13:31:56.210Z,5.39
2023-03-10T13:34:30.367Z,5.44
2023-03-10T13:37:06.882Z,5.55
2023-03-10T13:39:36.726Z,5.34
2023-03-10T13:42:24.073Z,5.49
2023-03-10T13:44:58.959Z,5.41
2023-03-10T13:47:31.907Z,5.41
2023-03-10T13:50:04.201Z,5.16
2023-03-10T13:52:34.660Z,5.27
2023-03-10T13:55:14.094Z,5.26
2023-03-10T13:57:45.147Z,5.32
2023-03-10T14:00:20.797Z,5.20
2023-03-10T14:02:52.482Z,5.32
2023-03-10T14:05:41.667Z,5.33
2023-03-10T14:08:27.943Z,5.00
2023-03-10T14:11:17.571Z,5.21
2023-03-10T14:13:49.768Z,5.61
2023-03-10T14:16:19.402Z,5.56
2023-03-10T14:18:49.048Z,5.53
2023-03-10T14:21:33.638Z,5.30
2023-03-10T14:24:08.688Z,5.47
2023-03-10T14:26:40.252Z,5.25
2023-03-10T14:29:18.447Z,5.29
2023-03-10T14:31:53.183Z,5.34
2023-03-10T14:34:22.781Z,5.33
2023-03-10T14:36:53.814Z,5.13
2023-03-10T14:39:23.444Z,5.10
2023-03-10T14:41:53.819Z,5.45
2023-03-10T14:44:25.966Z,5.10
2023-03-10T14:46:55.876Z,5.16
2023-03-10T14:49:28.089Z,5.14
2023-03-10T14:51:57.678Z,5.28
2023-03-10T14:54:27.752Z,5.43
2023-03-10T14:56:59.793Z,5.53
2023-03-10T14:59:32.054Z,5.38
2023-03-10T15:02:05.953Z,5.39
2023-03-10T15:04:35.779Z,5.33
2023-03-10T15:07:05.458Z,5.15
2023-03-10T15:09:35.405Z,5.16
2023-03-10T15:12:05.025Z,5.11
2023-03-10T15:14:37.250Z,5.16
2023-03-10T15:17:07.225Z,5.19
2023-03-10T15:19:36.830Z,5.14
2023-03-10T15:22:06.887Z,5.31
2023-03-10T15:24:36.508Z,5.27
2023-03-10T15:27:07.476Z,5.45
2023-03-10T15:29:39.728Z,5.41
2023-03-10T15:32:09.983Z,5.20
2023-03-10T15:34:39.609Z,5.25
2023-03-10T15:37:09.742Z,5.16
2023-03-10T15:39:39.364Z,5.08
2023-03-10T15:42:09.261Z,5.22
2023-03-10T15:44:42.083Z,5.21
2023-03-10T15:47:11.724Z,5.06
2023-03-10T15:49:41.868Z,5.15
2023-03-10T15:52:11.590Z,5.00
2023-03-10T15:54:41.195Z,5.02
2023-03-10T15:57:10.838Z,5.12
2023-03-10T15:59:43.032Z,5.05
2023-03-10T16:02:15.324Z,5.05
2023-03-10T16:04:45.459Z,4.87
2023-03-10T16:07:15.458Z,5.23
2023-03-10T16:09:45.103Z,5.31
2023-03-10T16:12:14.731Z,5.40
2023-03-10T16:14:46.915Z,5.36
2023-03-10T16:17:16.914Z,5.31
2023-03-10T16:19:46.578Z,4.97
2023-03-10T16:22:16.223Z,4.81
2023-03-10T16:24:46.139Z,4.72
2023-03-10T16:27:15.807Z,4.61
2023-03-10T16:29:48.579Z,4.60
2023-03-10T16:32:19.795Z,4.47
2023-03-10T16:34:49.720Z,4.35
2023-03-10T16:37:19.301Z,4.41
2023-03-10T16:39:48.986Z,4.27
2023-03-10T16:42:18.915Z,4.21
2023-03-10T16:44:51.326Z,4.16
2023-03-10T16:47:20.999Z,3.98
2023-03-10T16:49:50.721Z,3.97
2023-03-10T16:52:20.339Z,3.75
2023-03-10T16:54:50.035Z,3.90
2023-03-10T16:57:19.634Z,3.96
2023-03-10T16:59:51.871Z,3.94
2023-03-10T17:02:22.217Z,3.94
2023-03-10T17:04:52.013Z,4.03
2023-03-10T17:07:21.918Z,4.11
2023-03-10T17:09:51.532Z,4.02
2023-03-10T17:12:21.141Z,4.06
2023-03-10T17:14:55.423Z,4.19
2023-03-10T17:17:25.047Z,4.10
2023-03-10T17:19:54.694Z,4.12
2023-03-10T17:22:24.331Z,4.14
2023-03-10T17:24:55.764Z,4.20
2023-03-10T17:27:25.819Z,4.01
2023-03-10T17:29:58.062Z,3.79
2023-03-10T17:32:28.330Z,4.13
2023-03-10T17:34:57.975Z,4.13
2023-03-10T17:37:27.742Z,4.01
2023-03-10T17:39:57.421Z,3.85
2023-03-10T17:42:27.919Z,3.77
2023-03-10T17:45:00.149Z,3.65
2023-03-10T17:47:29.848Z,3.65
2023-03-10T17:50:02.135Z,3.54
2023-03-10T17:52:32.041Z,3.42
2023-03-10T17:55:01.669Z,3.28
2023-03-10T17:57:31.429Z,3.34
2023-03-10T18:00:05.078Z,3.38
2023-03-10T18:02:41.741Z,2.99
2023-03-10T18:05:13.016Z,2.85
2023-03-10T18:07:42.595Z,2.90
2023-03-10T18:10:13.730Z,2.67
2023-03-10T18:12:43.328Z,2.62
2023-03-10T18:15:16.107Z,2.63
2023-03-10T18:17:45.925Z,2.68
2023-03-10T18:20:17.407Z,2.61
2023-03-10T18:22:47.275Z,2.44
2023-03-10T18:25:16.931Z,2.45
2023-03-10T18:27:46.547Z,2.45
2023-03-10T18:30:20.419Z,2.62
2023-03-10T18:32:50.073Z,2.40
2023-03-10T18:35:19.998Z,2.17
2023-03-10T18:37:49.584Z,2.33
2023-03-10T18:40:19.978Z,2.17
2023-03-10T18:42:49.828Z,2.52
2023-03-10T18:45:22.396Z,2.24
2023-03-10T18:47:52.153Z,2.17
2023-03-10T18:50:22.060Z,2.07
2023-03-10T18:52:51.769Z,2.01
2023-03-10T18:55:21.636Z,2.07
2023-03-10T18:57:51.313Z,2.03
2023-03-10T19:00:24.619Z,2.01
2023-03-10T19:02:55.350Z,1.88
2023-03-10T19:05:25.038Z,1.74
2023-03-10T19:07:54.853Z,1.86
2023-03-10T19:10:25.203Z,1.88
2023-03-10T19:12:54.804Z,1.81
2023-03-10T19:15:27.841Z,1.59
2023-03-10T19:17:57.860Z,1.79
2023-03-10T19:20:27.493Z,1.65
2023-03-10T19:22:57.357Z,1.76
2023-03-10T19:25:27.275Z,1.72
2023-03-10T19:27:57.004Z,1.80
2023-03-10T19:30:29.261Z,1.68
2023-03-10T19:32:58.886Z,1.74
2023-03-10T19:35:28.613Z,1.82
2023-03-10T19:37:58.372Z,1.82
2023-03-10T19:40:28.007Z,1.69
2023-03-10T19:42:58.035Z,1.81
2023-03-10T19:45:31.110Z,1.78
2023-03-10T19:48:00.725Z,1.78
2023-03-10T19:50:30.591Z,1.70
2023-03-10T19:53:00.978Z,1.75
2023-03-10T19:55:30.597Z,1.52
2023-03-10T19:58:00.192Z,1.59
2023-03-10T20:00:36.072Z,1.53
2023-03-10T20:03:06.537Z,1.73
2023-03-10T20:05:36.195Z,1.72
2023-03-10T20:08:05.940Z,1.65
2023-03-10T20:10:35.606Z,1.90
2023-03-10T20:13:05.282Z,1.59
2023-03-10T20:15:39.713Z,1.55
2023-03-10T20:18:09.464Z,1.73
2023-03-10T20:20:39.129Z,1.69
2023-03-10T20:23:08.733Z,1.70
2023-03-10T20:25:38.372Z,1.57
2023-03-10T20:28:08.597Z,1.76
2023-03-10T20:30:41.291Z,1.65
2023-03-10T20:33:11.167Z,1.54
2023-03-10T20:35:40.872Z,1.62
2023-03-10T20:38:10.583Z,1.20
2023-03-10T20:40:40.543Z,1.52
2023-03-10T20:43:10.229Z,1.35
2023-03-10T20:45:43.671Z,1.62
2023-03-10T20:48:13.309Z,1.63
2023-03-10T20:50:42.944Z,1.50
2023-03-10T20:53:12.949Z,1.51
2023-03-10T20:55:44.463Z,1.65
2023-03-10T20:58:14.126Z,1.67
2023-03-10T21:00:48.824Z,1.63
2023-03-10T21:03:18.448Z,1.61
2023-03-10T21:05:48.031Z,1.56
2023-03-10T21:08:17.635Z,1.45
2023-03-10T21:10:49.363Z,1.37
2023-03-10T21:13:19.509Z,1.45
2023-03-10T21:15:53.152Z,1.43
2023-03-10T21:18:22.782Z,1.42
2023-03-10T21:20:52.368Z,1.30
2023-03-10T21:23:22.060Z,1.45
2023-03-10T21:25:51.726Z,1.31
2023-03-10T21:28:21.318Z,1.17
2023-03-10T21:30:53.572Z,1.46
2023-03-10T21:33:23.339Z,1.45
2023-03-10T21:35:53.015Z,1.40
2023-03-10T21:38:22.625Z,1.39
2023-03-10T21:40:52.357Z,1.51
2023-03-10T21:43:21.999Z,1.48
2023-03-10T21:45:54.232Z,1.52
2023-03-10T21:48:23.853Z,1.47
2023-03-10T21:50:53.469Z,1.59
2023-03-10T21:53:26.489Z,1.65
2023-03-10T21:55:57.683Z,1.59
2023-03-10T21:58:27.377Z,1.51
2023-03-10T22:00:59.658Z,1.61
2023-03-10T22:03:29.399Z,1.58
2023-03-10T22:05:59.058Z,1.54
2023-03-10T22:08:28.684Z,1.65
2023-03-10T22:10:58.378Z,1.59
2023-03-10T22:13:28.010Z,1.64
2023-03-10T22:16:02.069Z,1.58
2023-03-10T22:18:31.796Z,1.70
2023-03-10T22:21:01.404Z,1.67
2023-03-10T22:23:30.970Z,1.82
2023-03-10T22:26:00.575Z,1.88
2023-03-10T22:28:30.300Z,1.95
2023-03-10T22:31:02.515Z,1.93
2023-03-10T22:33:32.106Z,2.00
2023-03-10T22:36:05.157Z,1.95
2023-03-10T22:38:34.927Z,1.89
2023-03-10T22:41:04.671Z,1.93
2023-03-10T22:43:34.301Z,1.87
2023-03-10T22:46:13.229Z,1.98
2023-03-10T22:48:43.462Z,1.92
2023-03-10T22:51:15.915Z,1.86
2023-03-10T22:53:46.909Z,1.86
2023-03-10T22:56:16.668Z,1.92
2023-03-10T22:58:46.347Z,1.90
2023-03-10T23:01:19.001Z,2.00
2023-03-10T23:03:48.651Z,2.00
2023-03-10T23:06:19.764Z,1.98
2023-03-10T23:08:49.520Z,2.03
2023-03-10T23:11:19.305Z,1.95
2023-03-10T23:13:48.940Z,1.83
2023-03-10T23:16:21.209Z,1.98
2023-03-10T23:18:51.126Z,1.90
2023-03-10T23:21:20.770Z,1.99
2023-03-10T23:23:50.458Z,1.94
2023-03-10T23:26:20.102Z,2.12
2023-03-10T23:28:49.750Z,2.02
2023-03-10T23:31:22.019Z,2.03
2023-03-10T23:33:51.695Z,1.99
2023-03-10T23:36:21.412Z,1.98
2023-03-10T23:38:51.056Z,2.00
2023-03-10T23:41:22.187Z,2.07
2023-03-10T23:43:52.118Z,1.97
2023-03-10T23:46:24.793Z,2.09
2023-03-10T23:48:54.692Z,2.03
2023-03-10T23:51:24.313Z,1.69
2023-03-10T23:53:53.933Z,1.85
2023-03-10T23:56:23.581Z,2.00
2023-03-10T23:58:53.222Z,1.95
